Time;durP1;ratioP1;P1;durP2;ratioP2;P2;SDS_P1;SDS_P2;PMS_P1;PMS_P2;Temp;Humidity;BMP_temperature;BMP_pressure;BME280_temperature;BME280_humidity;BME280_pressure;Samples;Min_cycle;Max_cycle;Signal;HPM_P1;HPM_P2
2022/03/28 00:01:19;;;;;;;9.13;3.37;;;20.70;37.40;;;;;;5071628;28;20284;-65
2022/03/28 00:03:45;;;;;;;5.20;3.10;;;20.60;37.20;;;;;;5071696;28;20173;-65
2022/03/28 00:06:11;;;;;;;9.23;3.37;;;20.60;37.90;;;;;;5071771;28;20422;-65
2022/03/28 00:08:37;;;;;;;7.63;2.90;;;20.60;37.90;;;;;;5065175;28;20432;-65
2022/03/28 00:11:06;;;;;;;6.93;3.00;;;20.60;37.80;;;;;;5066919;28;20445;-66
2022/03/28 00:13:33;;;;;;;6.37;3.60;;;20.60;37.90;;;;;;5071718;28;20414;-66
2022/03/28 00:15:59;;;;;;;11.80;3.20;;;20.60;37.80;;;;;;5071563;28;20403;-65
2022/03/28 00:18:24;;;;;;;5.00;2.60;;;20.60;38.10;;;;;;5071387;28;20751;-66
2022/03/28 00:20:53;;;;;;;4.60;2.90;;;20.60;38.00;;;;;;5071384;28;20431;-66
2022/03/28 00:23:19;;;;;;;7.30;4.23;;;20.60;37.80;;;;;;5061643;28;20209;-66
2022/03/28 00:25:45;;;;;;;7.93;3.03;;;20.60;37.80;;;;;;5051573;28;20407;-65
2022/03/28 00:28:11;;;;;;;8.17;3.20;;;20.60;37.80;;;;;;5051602;28;20915;-65
2022/03/28 00:30:37;;;;;;;7.77;3.30;;;20.60;37.70;;;;;;5057446;28;20271;-65
2022/03/28 00:33:04;;;;;;;9.93;3.07;;;20.50;37.70;;;;;;5064193;28;20493;-65
2022/03/28 00:35:30;;;;;;;5.37;3.00;;;20.50;37.70;;;;;;5051131;28;20999;-65
2022/03/28 00:37:55;;;;;;;6.03;2.93;;;20.50;37.60;;;;;;5065896;28;20423;-66
2022/03/28 00:40:23;;;;;;;6.00;3.20;;;20.50;37.70;;;;;;5052895;28;20185;-66
2022/03/28 00:42:48;;;;;;;7.37;3.60;;;20.50;37.80;;;;;;5051690;28;20517;-66
2022/03/28 00:45:15;;;;;;;6.50;3.37;;;20.50;37.80;;;;;;5059502;28;20525;-65
2022/03/28 00:47:42;;;;;;;6.47;3.60;;;20.50;37.80;;;;;;5064605;28;20172;-66
2022/03/28 00:50:09;;;;;;;6.13;2.83;;;20.50;37.80;;;;;;5074903;28;20442;-66
2022/03/28 00:52:37;;;;;;;6.23;3.23;;;20.50;37.70;;;;;;5074708;28;20501;-66
2022/03/28 00:55:05;;;;;;;5.63;2.90;;;20.40;37.80;;;;;;5064336;28;20475;-66
2022/03/28 00:57:31;;;;;;;4.13;2.40;;;20.40;37.70;;;;;;5064667;28;20426;-66
2022/03/28 00:59:58;;;;;;;5.73;3.23;;;20.40;37.70;;;;;;5054664;28;20903;-66
2022/03/28 01:02:24;;;;;;;7.60;3.30;;;20.40;37.70;;;;;;5056343;28;20470;-65
2022/03/28 01:04:50;;;;;;;4.97;2.83;;;20.40;37.80;;;;;;5055113;28;20936;-66
2022/03/28 01:07:17;;;;;;;7.27;2.90;;;20.40;37.80;;;;;;5054818;28;20963;-66
2022/03/28 01:09:43;;;;;;;5.47;3.00;;;20.40;37.60;;;;;;5059647;28;20177;-66
2022/03/28 01:12:10;;;;;;;9.53;3.27;;;20.40;37.70;;;;;;5061689;28;20493;-66
2022/03/28 01:14:37;;;;;;;4.40;2.60;;;20.40;38.50;;;;;;5074759;28;20549;-65
2022/03/28 01:19:54;;;;;;;5.93;3.33;;;20.40;37.90;;;;;;5068279;28;20445;-66
2022/03/28 01:22:20;;;;;;;6.53;2.93;;;20.40;37.80;;;;;;5055406;28;20546;-66
2022/03/28 01:24:47;;;;;;;5.20;2.90;;;20.40;37.90;;;;;;5067724;28;20506;-65
2022/03/28 01:27:13;;;;;;;4.63;2.90;;;20.40;37.80;;;;;;5074723;28;20609;-66
2022/03/28 01:29:42;;;;;;;7.00;3.20;;;20.30;37.70;;;;;;5070561;28;20437;-66
2022/03/28 01:32:08;;;;;;;4.30;2.50;;;20.30;37.70;;;;;;5062660;28;21001;-66
2022/03/28 01:34:34;;;;;;;7.60;2.87;;;20.30;37.80;;;;;;5057698;28;20481;-66
2022/03/28 01:36:59;;;;;;;5.90;3.30;;;20.30;37.70;;;;;;5074497;28;20406;-66
2022/03/28 01:39:26;;;;;;;8.57;3.30;;;20.30;37.80;;;;;;5073964;28;20198;-64
2022/03/28 01:41:52;;;;;;;7.90;3.30;;;20.30;37.80;;;;;;5074525;28;20338;-64
2022/03/28 01:44:17;;;;;;;10.80;3.20;;;20.30;37.80;;;;;;5070058;28;20529;-64
2022/03/28 01:46:45;;;;;;;6.00;3.33;;;20.30;37.80;;;;;;5067012;28;20184;-64
2022/03/28 01:49:16;;;;;;;7.83;3.70;;;20.20;37.70;;;;;;5075129;28;20172;-66
2022/03/28 01:51:42;;;;;;;5.10;2.83;;;20.20;37.60;;;;;;5073901;28;20500;-66
2022/03/28 01:54:08;;;;;;;6.87;3.27;;;20.20;37.80;;;;;;5074081;28;20486;-66
2022/03/28 01:56:35;;;;;;;8.40;3.50;;;20.20;37.80;;;;;;5074032;28;20473;-66
2022/03/28 01:59:01;;;;;;;5.17;3.03;;;20.20;37.70;;;;;;5064448;28;20222;-66
2022/03/28 02:01:27;;;;;;;6.07;3.30;;;20.20;37.70;;;;;;5057010;28;20505;-66
2022/03/28 02:03:53;;;;;;;7.10;3.17;;;20.30;37.90;;;;;;5067947;28;20411;-66
2022/03/28 02:06:18;;;;;;;7.13;3.20;;;20.30;37.80;;;;;;5074044;28;20267;-66
2022/03/28 02:08:44;;;;;;;4.80;2.80;;;20.30;37.60;;;;;;5073446;28;20267;-66
2022/03/28 02:11:10;;;;;;;5.67;3.10;;;20.30;37.70;;;;;;5073700;28;20200;-66
2022/03/28 02:13:36;;;;;;;6.40;3.37;;;20.30;37.60;;;;;;5061899;28;20211;-66
2022/03/28 02:16:02;;;;;;;5.67;3.20;;;20.30;37.60;;;;;;5053678;28;20590;-66
2022/03/28 02:18:28;;;;;;;4.53;2.63;;;20.40;37.60;;;;;;5053332;28;20177;-66
2022/03/28 02:20:54;;;;;;;7.33;3.03;;;20.30;37.60;;;;;;5053597;28;20440;-65
2022/03/28 02:23:21;;;;;;;6.13;3.43;;;20.40;37.40;;;;;;5053711;28;20416;-66
2022/03/28 02:25:46;;;;;;;10.23;3.13;;;20.40;37.60;;;;;;5053706;28;20431;-65
2022/03/28 02:28:12;;;;;;;6.83;3.60;;;20.40;37.50;;;;;;5059399;28;20931;-65
2022/03/28 02:30:38;;;;;;;4.90;3.20;;;20.40;37.80;;;;;;5064811;28;20208;-65
2022/03/28 02:33:05;;;;;;;6.77;3.57;;;20.40;37.60;;;;;;5073392;28;20629;-65
2022/03/28 02:35:31;;;;;;;5.80;3.50;;;20.40;37.60;;;;;;5074858;28;20488;-65
2022/03/28 02:38:01;;;;;;;5.47;3.03;;;20.40;37.40;;;;;;5073412;28;20469;-65
2022/03/28 02:40:32;;;;;;;5.30;3.30;;;20.40;37.40;;;;;;5072044;28;20502;-65
2022/03/28 02:42:58;;;;;;;6.03;3.20;;;20.40;37.40;;;;;;5053002;28;20431;-65
2022/03/28 02:45:32;;;;;;;8.13;2.93;;;20.40;37.40;;;;;;5071406;28;20460;-65
2022/03/28 02:48:01;;;;;;;5.70;3.37;;;20.50;37.50;;;;;;5073070;28;20783;-65
2022/03/28 02:50:29;;;;;;;6.77;3.20;;;20.50;37.20;;;;;;5071647;28;20577;-66
2022/03/28 02:52:55;;;;;;;7.57;3.50;;;20.50;37.40;;;;;;5064780;28;20912;-66
2022/03/28 02:55:21;;;;;;;6.60;3.60;;;20.50;37.60;;;;;;5072984;28;20498;-66
2022/03/28 02:57:47;;;;;;;5.00;2.90;;;20.50;37.30;;;;;;5072598;28;20172;-65
2022/03/28 03:00:13;;;;;;;6.57;3.60;;;20.50;37.40;;;;;;5063833;28;20420;-65
2022/03/28 03:02:39;;;;;;;6.57;3.53;;;20.50;37.50;;;;;;5052751;28;20189;-66
2022/03/28 03:05:06;;;;;;;6.20;3.20;;;20.50;37.20;;;;;;5052817;28;20481;-65
2022/03/28 03:07:32;;;;;;;6.57;3.10;;;20.50;37.50;;;;;;5058614;28;20446;-66
2022/03/28 03:09:58;;;;;;;7.00;3.07;;;20.50;37.40;;;;;;5066276;28;20915;-66
2022/03/28 03:12:24;;;;;;;5.40;3.53;;;20.50;37.50;;;;;;5072413;28;20196;-66
2022/03/28 03:14:50;;;;;;;5.10;3.43;;;20.50;37.50;;;;;;5072659;28;20210;-66
2022/03/28 03:17:16;;;;;;;6.33;2.77;;;20.50;37.50;;;;;;5072754;28;20172;-66
2022/03/28 03:19:42;;;;;;;5.23;3.47;;;20.50;37.40;;;;;;5070721;28;20407;-66
2022/03/28 03:22:08;;;;;;;6.83;3.23;;;20.50;37.20;;;;;;5056800;28;20189;-66
2022/03/28 03:24:34;;;;;;;5.13;3.40;;;20.50;37.30;;;;;;5071968;28;20251;-66
2022/03/28 03:27:00;;;;;;;5.80;3.20;;;20.50;37.30;;;;;;5072363;28;20449;-66
2022/03/28 03:29:26;;;;;;;4.73;2.90;;;20.50;37.30;;;;;;5072123;28;20417;-66
2022/03/28 03:31:52;;;;;;;10.30;3.37;;;20.50;37.40;;;;;;5072308;28;20438;-65
2022/03/28 03:34:18;;;;;;;10.33;3.73;;;20.50;37.30;;;;;;5072097;28;20458;-65
2022/03/28 03:36:44;;;;;;;6.77;3.73;;;20.50;37.40;;;;;;5063928;28;20932;-64
2022/03/28 03:39:10;;;;;;;11.10;3.50;;;20.50;37.30;;;;;;5067976;28;20422;-65
2022/03/28 03:41:35;;;;;;;4.90;3.43;;;20.50;37.30;;;;;;5071932;28;20345;-65
2022/03/28 03:44:01;;;;;;;8.40;3.20;;;20.50;37.50;;;;;;5072215;28;20210;-66
2022/03/28 03:46:27;;;;;;;7.00;3.83;;;20.40;36.70;;;;;;5072137;28;20222;-67
2022/03/28 03:48:52;;;;;;;5.57;3.30;;;20.40;36.80;;;;;;5070400;28;20354;-66
2022/03/28 03:51:18;;;;;;;9.63;3.70;;;20.40;36.70;;;;;;5059654;28;20216;-66
2022/03/28 03:53:43;;;;;;;7.10;4.47;;;20.40;36.60;;;;;;5051918;28;20169;-66
2022/03/28 03:56:09;;;;;;;8.03;3.43;;;20.50;36.70;;;;;;5053488;28;20585;-67
2022/03/28 03:58:35;;;;;;;7.37;3.50;;;20.40;36.70;;;;;;5051640;28;20264;-67
2022/03/28 04:01:01;;;;;;;8.87;3.63;;;20.50;36.80;;;;;;5051561;28;20319;-67
2022/03/28 04:03:27;;;;;;;6.50;3.50;;;20.40;36.70;;;;;;5051746;28;20506;-67
2022/03/28 04:05:52;;;;;;;9.17;3.67;;;20.40;36.70;;;;;;5055225;28;20172;-67
2022/03/28 04:08:18;;;;;;;6.07;3.33;;;20.40;36.60;;;;;;5063169;28;20225;-67
2022/03/28 04:10:44;;;;;;;6.60;3.23;;;20.40;36.70;;;;;;5071225;28;20184;-67
2022/03/28 04:13:10;;;;;;;6.60;3.70;;;20.50;36.90;;;;;;5071761;28;20195;-68
2022/03/28 04:15:37;;;;;;;5.80;3.40;;;20.40;36.70;;;;;;5071588;28;20466;-67
2022/03/28 04:18:02;;;;;;;6.20;3.27;;;20.40;37.00;;;;;;5071659;28;20437;-67
2022/03/28 04:20:29;;;;;;;7.90;3.60;;;20.40;36.70;;;;;;5067823;28;20431;-67
2022/03/28 04:22:55;;;;;;;7.47;3.90;;;20.40;36.80;;;;;;5058780;28;20168;-67
2022/03/28 04:25:21;;;;;;;14.93;3.80;;;20.40;36.70;;;;;;5063230;28;20415;-67
2022/03/28 04:27:47;;;;;;;4.70;2.93;;;20.40;36.80;;;;;;5071657;28;20184;-67
2022/03/28 04:30:13;;;;;;;7.43;3.77;;;20.40;36.70;;;;;;5072351;28;20407;-67
2022/03/28 04:32:39;;;;;;;8.77;3.77;;;20.40;36.70;;;;;;5071375;28;20245;-67
2022/03/28 04:35:06;;;;;;;6.43;3.00;;;20.40;36.70;;;;;;5063911;28;20858;-67
2022/03/28 04:37:37;;;;;;;6.43;3.70;;;20.40;36.80;;;;;;5060698;28;20192;-67
2022/03/28 04:40:05;;;;;;;11.83;4.10;;;20.40;36.80;;;;;;5066335;28;20403;-66
2022/03/28 04:42:31;;;;;;;8.70;3.33;;;20.40;36.70;;;;;;5071301;28;20485;-66
2022/03/28 04:44:57;;;;;;;5.60;3.60;;;20.40;36.80;;;;;;5071315;28;20493;-65
2022/03/28 04:47:23;;;;;;;5.20;2.90;;;20.40;36.70;;;;;;5071509;28;20885;-66
2022/03/28 04:49:49;;;;;;;6.30;3.37;;;20.30;36.70;;;;;;5064737;28;20511;-66
2022/03/28 04:52:14;;;;;;;6.07;3.70;;;20.30;36.70;;;;;;5058233;28;20209;-65
2022/03/28 04:54:40;;;;;;;4.33;2.93;;;20.30;36.70;;;;;;5071180;28;20450;-66
2022/03/28 04:57:06;;;;;;;5.30;3.47;;;20.30;36.80;;;;;;5069078;28;20185;-66
2022/03/28 04:59:32;;;;;;;6.17;3.90;;;20.30;36.70;;;;;;5070839;28;20173;-66
2022/03/28 05:01:58;;;;;;;8.80;4.20;;;20.30;37.00;;;;;;5071241;28;20431;-66
2022/03/28 05:04:24;;;;;;;8.17;3.90;;;20.30;36.90;;;;;;5071232;28;20411;-66
2022/03/28 05:06:50;;;;;;;6.90;3.83;;;20.30;36.90;;;;;;5056576;28;20530;-65
2022/03/28 05:09:15;;;;;;;6.60;3.80;;;20.30;36.90;;;;;;5050921;28;20197;-66
2022/03/28 05:11:41;;;;;;;5.77;3.67;;;20.30;36.90;;;;;;5050877;28;20198;-65
2022/03/28 05:14:07;;;;;;;7.07;3.77;;;20.30;36.70;;;;;;5057014;28;20553;-66
2022/03/28 05:16:33;;;;;;;6.00;3.40;;;20.30;36.60;;;;;;5052398;28;20906;-65
2022/03/28 05:18:59;;;;;;;5.60;3.50;;;20.30;36.70;;;;;;5050536;28;20168;-65
2022/03/28 05:21:24;;;;;;;8.60;3.37;;;20.30;36.90;;;;;;5050895;28;20192;-67
2022/03/28 05:23:50;;;;;;;7.03;3.80;;;20.30;37.30;;;;;;5051030;28;20174;-67
2022/03/28 05:26:15;;;;;;;10.90;4.00;;;20.30;36.70;;;;;;5050978;28;20176;-66
2022/03/28 05:28:41;;;;;;;6.40;3.50;;;20.30;36.50;;;;;;5057053;28;20178;-67
2022/03/28 05:31:07;;;;;;;5.87;3.77;;;20.30;36.70;;;;;;5064937;28;20338;-67
2022/03/28 05:33:33;;;;;;;6.70;3.97;;;20.30;36.80;;;;;;5060195;28;20565;-66
2022/03/28 05:35:59;;;;;;;16.33;3.67;;;20.40;37.00;;;;;;5056601;28;20468;-67
2022/03/28 05:38:25;;;;;;;7.00;3.57;;;20.40;37.00;;;;;;5057614;28;20522;-66
2022/03/28 05:40:50;;;;;;;6.87;3.43;;;20.40;36.80;;;;;;5074286;28;20192;-66
2022/03/28 05:43:16;;;;;;;7.87;4.47;;;20.40;36.80;;;;;;5066243;28;20645;-67
2022/03/28 05:45:42;;;;;;;7.47;3.40;;;20.40;36.80;;;;;;5066903;28;20177;-66
2022/03/28 05:48:08;;;;;;;7.33;3.50;;;20.40;36.80;;;;;;5074139;28;20821;-66
2022/03/28 05:50:33;;;;;;;10.63;3.90;;;20.40;36.90;;;;;;5073379;28;20180;-66
2022/03/28 05:52:59;;;;;;;5.90;3.80;;;20.40;37.00;;;;;;5074011;28;20641;-66
2022/03/28 05:55:25;;;;;;;6.70;4.13;;;20.40;36.80;;;;;;5073947;28;20227;-66
2022/03/28 05:57:51;;;;;;;7.80;4.17;;;20.40;37.10;;;;;;5067469;28;20224;-66
2022/03/28 06:00:16;;;;;;;12.43;4.30;;;20.40;37.00;;;;;;5070855;28;20171;-66
2022/03/28 06:02:43;;;;;;;6.20;3.80;;;20.40;36.90;;;;;;5066893;28;20201;-65
2022/03/28 06:05:09;;;;;;;8.20;3.73;;;20.40;37.00;;;;;;5068555;28;20187;-66
2022/03/28 06:07:35;;;;;;;12.30;4.20;;;20.40;37.30;;;;;;5062541;28;20427;-66
2022/03/28 06:10:02;;;;;;;8.60;3.90;;;20.40;37.20;;;;;;5053288;28;20465;-66
2022/03/28 06:12:27;;;;;;;12.33;4.20;;;20.50;37.20;;;;;;5053743;28;20189;-67
2022/03/28 06:14:53;;;;;;;8.20;4.00;;;20.50;37.20;;;;;;5053755;28;20460;-67
2022/03/28 06:17:23;;;;;;;8.10;3.47;;;20.50;37.40;;;;;;5053765;28;20180;-68
2022/03/28 06:19:49;;;;;;;6.73;3.50;;;20.50;37.80;;;;;;5053228;28;20169;-67
2022/03/28 06:22:15;;;;;;;14.23;3.27;;;20.60;37.80;;;;;;5068793;28;20465;-66
2022/03/28 06:24:41;;;;;;;14.47;4.37;;;20.60;37.60;;;;;;5053575;28;20423;-66
2022/03/28 06:27:07;;;;;;;9.90;4.80;;;20.60;37.00;;;;;;5053496;28;20930;-66
2022/03/28 06:29:33;;;;;;;8.80;4.60;;;20.60;36.10;;;;;;5053053;28;20233;-70
2022/03/28 06:31:59;;;;;;;10.83;4.90;;;20.60;35.40;;;;;;5062675;28;20966;-67
2022/03/28 06:34:24;;;;;;;10.20;5.37;;;20.60;35.20;;;;;;5064885;28;20469;-66
2022/03/28 06:36:50;;;;;;;11.77;5.67;;;20.60;34.90;;;;;;5073460;28;20180;-67
2022/03/28 06:39:16;;;;;;;11.70;5.60;;;20.70;34.60;;;;;;5072892;28;20267;-68
2022/03/28 06:41:42;;;;;;;16.43;5.97;;;20.70;34.60;;;;;;5073161;28;20227;-69
2022/03/28 06:44:11;;;;;;;9.40;4.97;;;20.80;34.70;;;;;;5073100;28;20172;-68
2022/03/28 06:46:40;;;;;;;20.10;5.70;;;20.80;34.60;;;;;;5064027;28;20250;-68
2022/03/28 06:49:06;;;;;;;11.43;5.00;;;20.80;34.20;;;;;;5068464;28;20903;-67
2022/03/28 06:51:33;;;;;;;17.20;6.17;;;20.90;34.00;;;;;;5068577;28;20490;-69
2022/03/28 06:53:59;;;;;;;14.60;5.33;;;20.90;34.40;;;;;;5066406;28;21041;-73
2022/03/28 06:56:25;;;;;;;20.70;5.37;;;20.90;34.10;;;;;;5056126;28;20494;-69
2022/03/28 06:58:52;;;;;;;13.20;5.10;;;20.90;33.80;;;;;;5072498;28;20556;-69
2022/03/28 07:01:18;;;;;;;10.10;5.57;;;21.00;34.10;;;;;;5072742;28;20196;-69
2022/03/28 07:03:43;;;;;;;11.07;4.67;;;21.00;33.50;;;;;;5073102;28;20409;-71
2022/03/28 07:06:09;;;;;;;10.97;5.13;;;21.00;33.70;;;;;;5072710;28;20176;-72
2022/03/28 07:08:35;;;;;;;10.10;5.63;;;21.00;33.80;;;;;;5069123;28;20509;-72
2022/03/28 07:11:02;;;;;;;8.70;5.50;;;21.00;34.10;;;;;;5058890;28;20196;-69
2022/03/28 07:13:28;;;;;;;12.53;5.47;;;21.10;34.10;;;;;;5054983;28;20932;-69
2022/03/28 07:15:53;;;;;;;11.13;5.40;;;21.10;33.70;;;;;;5056241;28;20521;-70
2022/03/28 07:18:19;;;;;;;11.07;5.57;;;21.10;33.60;;;;;;5052645;28;20510;-71
2022/03/28 07:20:46;;;;;;;10.47;5.60;;;21.10;33.70;;;;;;5052083;28;20525;-68
2022/03/28 07:23:13;;;;;;;10.57;5.10;;;21.10;33.70;;;;;;5054826;28;20177;-68
2022/03/28 07:25:39;;;;;;;10.20;5.53;;;21.20;33.60;;;;;;5060265;28;20466;-69
2022/03/28 07:28:10;;;;;;;11.67;5.90;;;21.20;33.70;;;;;;5052327;28;20502;-68
2022/03/28 07:30:37;;;;;;;12.50;5.50;;;21.30;33.10;;;;;;5051923;28;20433;-67
2022/03/28 07:33:04;;;;;;;18.47;6.10;;;21.40;33.80;;;;;;5052689;28;20502;-68
2022/03/28 07:35:32;;;;;;;9.77;5.50;;;21.50;34.10;;;;;;5061867;28;20467;-68
2022/03/28 07:37:58;;;;;;;12.17;4.63;;;21.60;34.10;;;;;;5071421;28;20415;-68
2022/03/28 07:40:23;;;;;;;20.60;5.20;;;21.70;34.10;;;;;;5053791;28;20493;-67
2022/03/28 07:42:51;;;;;;;16.40;5.70;;;21.70;34.00;;;;;;5065713;28;20625;-68
2022/03/28 07:45:17;;;;;;;8.70;4.80;;;21.80;33.80;;;;;;5071932;28;20180;-68
2022/03/28 07:47:43;;;;;;;9.67;4.90;;;22.10;34.20;;;;;;5071928;28;20468;-68
2022/03/28 07:50:10;;;;;;;8.80;4.50;;;22.00;34.10;;;;;;5071351;28;20172;-67
2022/03/28 07:52:36;;;;;;;12.93;4.73;;;22.00;33.90;;;;;;5055123;28;20541;-68
2022/03/28 07:55:02;;;;;;;11.43;5.20;;;22.10;34.10;;;;;;5071751;28;21054;-69
2022/03/28 07:57:29;;;;;;;12.17;6.03;;;22.10;34.00;;;;;;5071499;28;20203;-68
2022/03/28 07:59:55;;;;;;;14.57;4.93;;;22.20;33.80;;;;;;5071435;28;20406;-68
2022/03/28 08:02:20;;;;;;;9.93;5.60;;;22.30;34.00;;;;;;5071755;28;20423;-68
2022/03/28 08:04:46;;;;;;;11.20;4.10;;;22.30;34.40;;;;;;5066381;28;20946;-67
2022/03/28 08:07:12;;;;;;;9.47;4.40;;;22.20;34.60;;;;;;5063367;28;20171;-70
2022/03/28 08:09:39;;;;;;;21.40;4.87;;;22.20;34.70;;;;;;5071276;28;20259;-70
2022/03/28 08:12:06;;;;;;;9.10;4.47;;;22.10;34.60;;;;;;5071568;28;20430;-70
2022/03/28 08:14:32;;;;;;;7.37;4.60;;;22.10;34.70;;;;;;5071653;28;20457;-68
2022/03/28 08:16:58;;;;;;;7.73;4.20;;;22.10;34.70;;;;;;5071646;28;20751;-68
2022/03/28 08:19:26;;;;;;;10.27;4.80;;;22.00;34.90;;;;;;5065997;28;20428;-68
2022/03/28 08:21:51;;;;;;;11.50;4.83;;;22.00;35.00;;;;;;5063283;28;20476;-66
2022/03/28 08:24:18;;;;;;;9.30;5.13;;;22.10;35.00;;;;;;5071608;28;20407;-66
2022/03/28 08:26:44;;;;;;;10.40;4.97;;;22.10;34.90;;;;;;5070792;28;20175;-66
2022/03/28 08:29:11;;;;;;;15.67;5.00;;;22.10;35.40;;;;;;5054525;28;20487;-66
2022/03/28 08:31:36;;;;;;;8.63;5.13;;;22.30;34.50;;;;;;5051362;28;20288;-66
2022/03/28 08:34:02;;;;;;;7.53;4.60;;;22.30;33.50;;;;;;5058061;28;20959;-66
2022/03/28 08:36:28;;;;;;;11.60;4.50;;;22.20;33.00;;;;;;5063002;28;20173;-66
2022/03/28 08:38:53;;;;;;;9.03;5.43;;;22.20;33.50;;;;;;5071107;28;20211;-66
2022/03/28 08:41:22;;;;;;;11.17;5.50;;;22.10;33.00;;;;;;5072746;28;20189;-65
2022/03/28 08:43:48;;;;;;;11.80;5.43;;;22.10;33.30;;;;;;5071489;28;20256;-67
2022/03/28 08:46:16;;;;;;;9.43;5.33;;;22.10;33.10;;;;;;5072711;28;20489;-66
2022/03/28 08:48:42;;;;;;;12.20;5.37;;;22.10;33.30;;;;;;5065755;28;20180;-66
2022/03/28 08:51:10;;;;;;;11.17;5.63;;;22.00;33.50;;;;;;5067047;28;20457;-66
2022/03/28 08:53:37;;;;;;;10.43;5.10;;;22.00;34.00;;;;;;5071369;28;20486;-65
2022/03/28 08:56:03;;;;;;;15.47;5.43;;;22.00;34.60;;;;;;5071143;28;20873;-66
2022/03/28 08:58:29;;;;;;;12.80;5.33;;;22.00;34.80;;;;;;5070909;28;20402;-66
2022/03/28 09:00:55;;;;;;;10.40;5.20;;;22.00;34.70;;;;;;5071015;28;20460;-66
2022/03/28 09:03:38;;;;;;;9.30;5.03;;;22.00;35.00;;;;;;5068819;28;20183;-65
2022/03/28 09:06:32;;;;;;;16.63;4.93;;;22.00;35.10;;;;;;5051227;28;20173;-66
2022/03/28 09:09:23;;;;;;;13.63;5.10;;;22.00;34.60;;;;;;5052185;28;20423;-66
2022/03/28 09:11:55;;;;;;;7.57;4.03;;;22.00;35.00;;;;;;5055126;28;20815;-66
2022/03/28 09:14:25;;;;;;;9.37;5.00;;;22.10;34.20;;;;;;5054899;28;20455;-66
2022/03/28 09:17:01;;;;;;;9.10;4.87;;;22.30;34.70;;;;;;5057184;28;20435;-66
2022/03/28 09:19:49;;;;;;;11.20;4.90;;;22.40;34.40;;;;;;5064636;28;20505;-66
2022/03/28 09:22:20;;;;;;;7.80;4.63;;;22.50;34.40;;;;;;5074615;28;20429;-66
2022/03/28 09:24:47;;;;;;;7.87;4.70;;;22.60;34.40;;;;;;5074796;28;20782;-66
2022/03/28 09:27:15;;;;;;;8.93;4.73;;;22.70;34.40;;;;;;5074775;28;20417;-67
2022/03/28 09:29:53;;;;;;;10.93;5.13;;;22.70;34.40;;;;;;5074127;28;20411;-66
2022/03/28 09:32:23;;;;;;;6.80;4.10;;;22.70;34.40;;;;;;5057783;28;20790;-66
2022/03/28 09:35:01;;;;;;;9.10;4.20;;;22.80;34.30;;;;;;5067894;28;20459;-66
2022/03/28 09:37:28;;;;;;;6.53;4.57;;;22.80;34.40;;;;;;5073242;28;20421;-66
2022/03/28 09:39:54;;;;;;;7.33;4.43;;;22.80;34.30;;;;;;5074016;28;20417;-66
2022/03/28 09:42:19;;;;;;;6.10;4.10;;;22.90;34.30;;;;;;5074308;28;20533;-66
2022/03/28 09:44:49;;;;;;;7.10;4.80;;;22.90;34.20;;;;;;5074382;28;20223;-67
2022/03/28 09:47:20;;;;;;;7.00;4.50;;;22.90;34.30;;;;;;5073472;28;20172;-66
2022/03/28 09:49:49;;;;;;;13.57;4.20;;;22.90;34.20;;;;;;5061983;28;20419;-66
2022/03/28 09:52:22;;;;;;;8.40;4.60;;;22.90;34.30;;;;;;5071050;28;20453;-66
2022/03/28 09:54:52;;;;;;;9.60;3.93;;;23.00;34.30;;;;;;5074206;28;20454;-66
2022/03/28 09:57:25;;;;;;;19.53;4.53;;;23.00;34.30;;;;;;5074236;28;20914;-67
2022/03/28 09:59:52;;;;;;;21.13;7.20;;;23.00;34.40;;;;;;5073869;28;20410;-65
2022/03/28 10:02:24;;;;;;;16.30;8.20;;;23.00;32.70;;;;;;5072721;28;20537;-66
2022/03/28 10:04:53;;;;;;;15.50;10.50;;;22.90;31.90;;;;;;5061233;28;21080;-65
2022/03/28 10:07:20;;;;;;;18.27;11.37;;;22.80;30.70;;;;;;5062101;28;20846;-66
2022/03/28 10:09:47;;;;;;;19.20;11.20;;;22.80;30.00;;;;;;5053499;28;20492;-67
2022/03/28 10:12:13;;;;;;;24.83;9.90;;;22.70;28.60;;;;;;5053786;28;20435;-69
2022/03/28 10:14:39;;;;;;;11.40;6.93;;;22.80;30.70;;;;;;5053826;28;20466;-70
2022/03/28 10:17:06;;;;;;;10.73;6.30;;;22.90;32.40;;;;;;5053670;28;20490;-69
2022/03/28 10:19:33;;;;;;;12.97;7.07;;;23.00;32.50;;;;;;5054276;28;20192;-69
2022/03/28 10:22:03;;;;;;;13.40;7.10;;;23.10;32.30;;;;;;5068538;28;20483;-70
2022/03/28 10:24:33;;;;;;;13.30;8.47;;;23.10;32.20;;;;;;5073752;28;20406;-69
2022/03/28 10:27:00;;;;;;;11.50;7.40;;;23.10;32.00;;;;;;5073673;28;20406;-70
2022/03/28 10:29:38;;;;;;;12.53;8.10;;;23.10;31.50;;;;;;5073065;28;20418;-69
2022/03/28 10:32:15;;;;;;;13.47;9.33;;;23.20;31.50;;;;;;5073440;28;20430;-69
2022/03/28 10:34:42;;;;;;;12.57;8.30;;;23.20;31.40;;;;;;5064734;28;20463;-70
2022/03/28 10:37:27;;;;;;;15.07;9.20;;;23.20;31.30;;;;;;5069430;28;20786;-70
2022/03/28 10:40:15;;;;;;;15.77;9.03;;;23.20;31.30;;;;;;5072970;28;20398;-70
2022/03/28 10:43:07;;;;;;;12.40;7.73;;;23.10;31.40;;;;;;5064670;28;20478;-71
2022/03/28 10:45:32;;;;;;;10.10;7.17;;;23.10;31.10;;;;;;5072956;28;20745;-70
2022/03/28 10:47:59;;;;;;;12.30;7.67;;;23.10;31.00;;;;;;5073047;28;20432;-70
2022/03/28 10:50:29;;;;;;;12.80;7.97;;;23.10;31.10;;;;;;5072527;28;20176;-70
2022/03/28 10:53:16;;;;;;;14.03;7.90;;;23.10;31.00;;;;;;5073090;28;20429;-69
2022/03/28 10:55:57;;;;;;;12.53;8.53;;;23.10;30.70;;;;;;5065695;28;20461;-70
2022/03/28 10:58:38;;;;;;;13.77;7.90;;;23.00;30.30;;;;;;5065985;28;20414;-70
2022/03/28 11:01:12;;;;;;;13.10;8.10;;;22.90;30.00;;;;;;5072812;28;20430;-69
2022/03/28 11:03:38;;;;;;;11.47;7.70;;;22.90;30.10;;;;;;5072832;28;20428;-71
2022/03/28 11:06:05;;;;;;;12.03;7.23;;;22.90;30.00;;;;;;5072904;28;20775;-70
2022/03/28 11:08:47;;;;;;;13.27;7.60;;;22.80;30.10;;;;;;5072573;28;20176;-69
2022/03/28 11:11:31;;;;;;;10.67;6.90;;;22.80;30.30;;;;;;5063818;28;20914;-69
2022/03/28 11:14:17;;;;;;;12.30;6.83;;;22.70;30.30;;;;;;5055481;28;20951;-70
2022/03/28 11:16:52;;;;;;;14.00;8.60;;;22.70;30.20;;;;;;5062177;28;20456;-69
2022/03/28 11:19:33;;;;;;;13.80;7.10;;;22.70;30.30;;;;;;5063011;28;20438;-70
2022/03/28 11:22:04;;;;;;;18.53;7.63;;;22.60;30.10;;;;;;5052522;28;20834;-69
2022/03/28 11:24:58;;;;;;;17.13;6.50;;;22.70;30.70;;;;;;5052516;28;20419;-69
2022/03/28 11:27:29;;;;;;;13.70;6.90;;;22.70;31.30;;;;;;5052616;28;20408;-70
2022/03/28 11:30:13;;;;;;;9.13;6.00;;;22.80;31.40;;;;;;5057851;28;20930;-65
2022/03/28 11:32:39;;;;;;;12.37;7.33;;;22.80;31.40;;;;;;5060382;28;20435;-65
2022/03/28 11:35:09;;;;;;;13.50;6.77;;;22.80;31.30;;;;;;5068908;28;20454;-65
2022/03/28 11:37:35;;;;;;;11.13;6.57;;;22.70;30.80;;;;;;5068980;28;20177;-65
2022/03/28 11:40:04;;;;;;;15.37;6.37;;;22.70;30.80;;;;;;5066853;28;20738;-65
2022/03/28 11:42:32;;;;;;;10.77;6.70;;;22.70;30.80;;;;;;5066928;28;20192;-65
2022/03/28 11:45:07;;;;;;;11.47;6.70;;;22.70;30.80;;;;;;5054019;28;20525;-65
2022/03/28 11:47:35;;;;;;;11.13;7.20;;;22.60;30.70;;;;;;5061839;28;20418;-65
2022/03/28 11:50:03;;;;;;;10.57;6.80;;;22.60;30.70;;;;;;5070341;28;20555;-65
2022/03/28 11:52:30;;;;;;;12.70;6.23;;;22.60;30.60;;;;;;5067143;28;20490;-65
2022/03/28 11:54:58;;;;;;;10.40;6.70;;;22.60;30.70;;;;;;5057426;28;21000;-65
2022/03/28 12:00:15;;;;;;;10.63;6.37;;;22.60;30.50;;;;;;5069664;28;20926;-65
2022/03/28 12:02:52;;;;;;;12.10;7.00;;;22.60;30.40;;;;;;5052417;28;20444;-66
2022/03/28 12:05:34;;;;;;;10.27;7.23;;;22.50;30.20;;;;;;5069136;28;20418;-65
2022/03/28 12:08:06;;;;;;;11.93;7.23;;;22.50;30.20;;;;;;5071198;28;20942;-65
2022/03/28 12:10:37;;;;;;;12.33;7.27;;;22.50;30.20;;;;;;5060070;28;20860;-65
2022/03/28 12:13:05;;;;;;;16.73;7.60;;;22.50;29.80;;;;;;5051669;28;21255;-65
2022/03/28 12:15:35;;;;;;;13.17;7.20;;;22.40;29.80;;;;;;5051601;28;20451;-65
2022/03/28 12:18:06;;;;;;;17.63;8.70;;;22.50;29.70;;;;;;5058755;28;20438;-65
2022/03/28 12:20:38;;;;;;;10.67;6.50;;;22.40;29.40;;;;;;5062153;28;20434;-65
2022/03/28 12:23:05;;;;;;;12.50;7.53;;;22.40;29.50;;;;;;5071793;28;20415;-65
2022/03/28 12:25:41;;;;;;;13.07;7.37;;;22.40;29.60;;;;;;5071845;28;20445;-65
2022/03/28 12:28:11;;;;;;;13.37;6.73;;;22.40;29.60;;;;;;5071627;28;20414;-65
2022/03/28 12:30:42;;;;;;;18.03;6.90;;;22.40;29.50;;;;;;5071342;28;20469;-65
2022/03/28 12:33:08;;;;;;;15.27;8.17;;;22.30;29.60;;;;;;5069750;28;20430;-65
2022/03/28 12:35:38;;;;;;;13.00;7.50;;;22.30;29.50;;;;;;5059454;28;20788;-65
2022/03/28 12:38:04;;;;;;;13.03;6.97;;;22.30;29.30;;;;;;5064839;28;20492;-71
2022/03/28 12:40:31;;;;;;;16.10;7.90;;;22.30;29.20;;;;;;5070344;28;20849;-72
2022/03/28 12:43:00;;;;;;;13.77;7.20;;;22.30;29.00;;;;;;5063481;28;20439;-71
2022/03/28 12:45:27;;;;;;;15.93;6.90;;;22.30;29.30;;;;;;5068135;28;20446;-71
2022/03/28 12:48:03;;;;;;;14.93;6.60;;;22.30;29.30;;;;;;5061275;28;20915;-71
2022/03/28 12:50:30;;;;;;;12.67;6.73;;;22.20;29.30;;;;;;5056992;28;20469;-70
2022/03/28 12:53:14;;;;;;;14.23;7.50;;;22.20;29.50;;;;;;5060861;28;20431;-71